Latest Weather Observations for Cape Bruny AWS

IDT60801

Issued at 7:31 pm EST Friday 22 May 2015 (issued every 30 minutes, with the page automatically refreshed every 10 minutes)

About weather observations | Map of weather stations | Latest weather observations for TAS | Other Formats
Station Details ID: 094198 Name: CAPE BRUNY (CAPE BRUNY) Lat: -43.49 Lon: 147.14 Height: 59.7 m
Data from the previous 72 hours. | See also: Recent months at Cape Bruny AWS
Date/Time
EST
Temp
°C
App
Temp
°C
Dew
Point
Rel
Hum
%
Delta-T
°C
Wind Press
QNH
hPa
Press
MSL
hPa
Rain
since 9 am
mm
Dir
 
Spd
km/h
Gust
km/h
Spd
kts
Gust
kts
22/07:30pm 9.3 0.9 5.5 77 1.7 W 39 50 21 27 1026.7 1026.8 0.0
22/07:00pm 10.0 1.6 5.6 74 2.0 WSW 39 50 21 27 1026.5 1026.6 0.0
22/06:30pm 9.5 -0.2 5.9 78 1.7 WSW 46 59 25 32 1026.2 1026.2 0.0
22/06:00pm 9.3 -0.7 6.0 80 1.5 WSW 48 57 26 31 1026.1 1026.1 0.0
22/05:30pm 9.0 -2.2 5.7 80 1.5 WSW 54 69 29 37 1026.0 1026.0 0.0
22/05:25pm 8.9 -1.1 6.0 82 1.3 WSW 48 69 26 37 1025.9 1025.9 0.0
22/05:00pm 9.0 -0.6 6.4 84 1.2 WSW 46 57 25 31 1026.1 1026.1 0.0
22/04:30pm 9.5 0.5 6.4 81 1.4 WSW 43 56 23 30 1026.0 1026.0 0.0
22/04:00pm 10.0 0.9 5.8 75 1.9 WSW 43 54 23 29 1026.0 1026.0 0.0
22/03:30pm 10.5 -0.1 5.3 70 2.4 WSW 50 61 27 33 1025.7 1025.7 0.0
22/03:00pm 10.7 1.0 5.9 72 2.2 WSW 46 57 25 31 1025.4 1025.4 0.0
22/02:42pm 10.6 0.9 6.0 73 2.1 WSW 46 65 25 35 1025.3 1025.3 0.0
22/02:30pm 11.2 2.6 6.7 74 2.1 WSW 41 50 22 27 1025.4 1025.4 0.0
22/02:10pm 10.9 2.0 6.8 76 1.9 WSW 43 61 23 33 1025.3 1025.3 0.0
22/02:00pm 10.2 1.0 6.5 78 1.7 WSW 44 57 24 31 1025.4 1025.4 0.0
22/01:54pm 10.0 1.7 6.3 78 1.7 WSW 39 57 21 31 1025.4 1025.4 0.0
22/01:30pm 10.6 2.9 6.9 78 1.8 WSW 37 46 20 25 1025.6 1025.6 0.0
22/01:00pm 11.4 4.0 6.9 74 2.1 WSW 35 46 19 25 1025.6 1025.6 0.0
22/12:30pm 10.4 2.1 6.0 74 2.0 WSW 39 50 21 27 1025.8 1025.8 0.0
22/12:00pm 10.4 2.5 6.0 74 2.0 WSW 37 46 20 25 1026.1 1026.1 0.0
22/11:30am 11.0 1.8 5.3 68 2.6 WSW 43 57 23 31 1026.3 1026.4 0.0
22/11:28am 11.1 1.8 5.2 67 2.7 WSW 43 57 23 31 1026.4 1026.5 0.0
22/11:00am 11.0 5.4 5.3 68 2.6 W 24 35 13 19 1027.0 1027.1 0.0
22/10:30am 10.9 3.6 4.6 65 2.8 W 32 43 17 23 1026.9 1027.0 0.0
22/10:00am 10.6 5.5 4.1 64 2.9 WNW 20 28 11 15 1027.2 1027.3 0.0
22/09:30am 10.0 5.5 4.4 68 2.5 WNW 17 22 9 12 1027.3 1027.4 0.0
22/09:00am 9.3 5.2 4.1 70 2.3 WNW 15 19 8 10 1027.4 1027.5 0.0
22/08:30am 9.0 4.4 3.8 70 2.3 WNW 17 22 9 12 1027.2 1027.3 0.0
22/08:00am 8.6 3.0 3.4 70 2.2 NW 22 30 12 16 1027.1 1027.2 0.0
22/07:30am 8.8 2.2 4.2 73 2.0 W 28 35 15 19 1026.9 1027.0 0.0
22/07:00am 8.6 1.0 4.0 73 2.0 W 33 44 18 24 1026.9 1027.0 0.0
22/06:30am 8.9 1.4 4.3 73 2.0 W 33 43 18 23 1026.8 1026.9 0.0
22/06:00am 8.8 0.8 3.8 71 2.2 W 35 46 19 25 1026.7 1026.8 0.0
22/05:30am 8.9 1.2 3.3 68 2.4 W 33 41 18 22 1026.8 1026.9 0.0
22/05:00am 9.0 0.5 3.2 67 2.5 W 37 48 20 26 1026.9 1027.0 0.0
22/04:30am 8.8 1.3 3.6 70 2.3 W 32 41 17 22 1026.8 1026.9 0.0
22/04:00am 8.8 2.1 3.6 70 2.2 W 28 39 15 21 1026.9 1027.0 0.0
22/03:30am 8.9 2.6 3.5 69 2.3 W 26 32 14 17 1027.0 1027.1 0.0
22/03:00am 8.9 3.4 3.9 71 2.2 WNW 22 28 12 15 1027.1 1027.2 0.0
22/02:30am 8.9 2.9 3.5 69 2.3 W 24 28 13 15 1027.2 1027.3 0.0
22/02:00am 9.0 3.4 3.6 69 2.3 WNW 22 28 12 15 1027.2 1027.3 0.0
22/01:30am 9.2 2.8 3.2 66 2.6 W 26 32 14 17 1027.2 1027.3 0.0
22/01:00am 9.2 3.2 3.2 66 2.6 W 24 30 13 16 1027.4 1027.5 0.0
22/12:30am 9.3 3.2 2.9 64 2.7 W 24 32 13 17 1027.6 1027.7 0.0
22/12:00am 9.3 3.3 3.5 67 2.5 WSW 24 32 13 17 1027.7 1027.8 0.0
 
Date/Time
EST
Temp
°C
App
Temp
°C
Dew
Point
Rel
Hum
%
Delta-T
°C
Wind Press
QNH
hPa
Press
MSL
hPa
Rain
since 9 am
mm
Dir
 
Spd
km/h
Gust
km/h
Spd
kts
Gust
kts
21/11:30pm 9.4 3.4 3.6 67 2.5 W 24 30 13 16 1027.7 1027.8 0.0
21/11:00pm 9.4 3.9 4.0 69 2.4 W 22 28 12 15 1027.7 1027.8 0.0
21/10:30pm 9.4 4.4 4.8 73 2.1 W 20 24 11 13 1027.9 1028.0 0.0
21/10:00pm 9.3 4.3 4.5 72 2.1 W 20 26 11 14 1028.0 1028.1 0.0
21/09:30pm 9.3 4.9 4.7 73 2.1 W 17 22 9 12 1027.9 1028.0 0.0
21/09:00pm 9.6 4.8 4.4 70 2.3 WSW 19 28 10 15 1027.9 1028.0 0.0
21/08:30pm 9.6 4.7 4.2 69 2.4 WSW 19 26 10 14 1027.8 1027.9 0.0
21/08:00pm 9.6 4.5 4.0 68 2.4 W 20 26 11 14 1027.7 1027.8 0.0
21/07:30pm 9.7 4.6 4.1 68 2.5 W 20 26 11 14 1027.6 1027.7 0.0
21/07:00pm 9.8 4.7 4.0 67 2.5 W 20 26 11 14 1027.5 1027.6 0.0
21/06:30pm 9.7 5.8 3.2 64 2.8 SW 13 19 7 10 1027.3 1027.4 0.0
21/06:00pm 9.6 5.8 3.8 67 2.5 SW 13 24 7 13 1027.1 1027.2 0.0
21/05:30pm 9.7 4.5 3.4 65 2.7 SW 20 30 11 16 1026.7 1026.8 0.0
21/05:00pm 9.5 5.3 3.9 68 2.4 SW 15 24 8 13 1026.5 1026.6 0.0
21/04:30pm 9.3 5.1 3.9 69 2.4 SW 15 24 8 13 1026.4 1026.5 0.0
21/04:00pm 9.2 3.9 4.8 74 2.0 SW 22 30 12 16 1026.4 1026.5 0.0
21/03:30pm 10.0 5.4 3.5 64 2.8 SW 17 22 9 12 1026.1 1026.1 0.0
21/03:00pm 10.1 4.9 3.4 63 2.9 SW 20 26 11 14 1025.9 1025.9 0.0
21/02:30pm 10.2 5.6 3.5 63 2.9 SW 17 26 9 14 1025.6 1025.6 0.0
21/02:00pm 10.5 6.2 3.3 61 3.1 SW 15 24 8 13 1025.5 1025.5 0.0
21/01:30pm 10.6 5.9 3.2 60 3.2 SW 17 24 9 13 1025.5 1025.5 0.0
21/01:00pm 10.5 6.8 4.4 66 2.7 WSW 13 20 7 11 1025.5 1025.5 0.0
21/12:30pm 10.4 5.9 4.1 65 2.8 SW 17 28 9 15 1025.6 1025.6 0.0
21/12:00pm 10.6 6.1 4.3 65 2.8 SW 17 24 9 13 1025.7 1025.7 0.0
21/11:30am 10.1 5.2 5.3 72 2.2 S 20 26 11 14 1025.8 1025.8 0.0
21/11:00am 9.8 4.2 5.4 74 2.0 S 24 39 13 21 1025.8 1025.8 0.0
21/10:30am 10.4 6.0 2.5 58 3.4 SW 15 28 8 15 1025.3 1025.3 0.0
21/10:00am 10.3 5.3 1.4 54 3.7 SW 17 28 9 15 1025.0 1025.0 0.0
21/09:30am 10.1 5.2 1.7 56 3.5 SW 17 24 9 13 1024.7 1024.7 0.0
21/09:00am 9.9 5.0 2.0 58 3.3 SSW 17 28 9 15 1024.4 1024.4 0.6
21/08:30am 9.9 5.1 2.5 60 3.2 SSW 17 32 9 17 1024.0 1024.0 0.6
21/08:00am 10.0 4.4 3.5 64 2.8 S 22 41 12 22 1023.4 1023.4 0.6
21/07:30am 9.5 4.6 4.9 73 2.1 SW 20 28 11 15 1022.8 1022.8 0.6
21/07:00am 9.3 3.2 4.7 73 2.0 SW 26 35 14 19 1022.3 1022.3 0.6
21/06:30am 10.1 3.4 3.6 64 2.9 SW 28 39 15 21 1021.8 1021.8 0.6
21/06:00am 9.9 3.5 3.2 63 2.9 SW 26 43 14 23 1021.3 1021.3 0.6
21/05:30am 9.7 4.8 5.1 73 2.1 SSW 20 37 11 20 1020.7 1020.7 0.6
21/05:00am 9.7 3.2 4.9 72 2.2 SW 28 44 15 24 1020.4 1020.4 0.6
21/04:47am 9.9 3.6 5.5 74 2.0 SW 28 46 15 25 1020.2 1020.2 0.6
21/04:30am 9.6 2.1 4.6 71 2.2 SW 33 48 18 26 1019.8 1019.8 0.6
21/04:27am 9.7 2.9 5.1 73 2.1 WSW 30 48 16 26 1019.8 1019.8 0.6
21/04:00am 9.3 1.7 5.7 78 1.6 SW 35 52 19 28 1019.4 1019.4 0.6
21/03:30am 8.6 1.7 7.1 90 0.7 SW 33 52 18 28 1019.2 1019.2 0.6
21/03:07am 9.0 2.2 7.5 90 0.7 WSW 33 57 18 31 1018.9 1019.0 0.2
21/03:00am 9.0 1.8 7.5 90 0.7 W 35 46 19 25 1018.7 1018.8 0.0
21/02:30am 9.4 2.6 6.7 83 1.3 W 32 44 17 24 1018.2 1018.3 0.0
21/02:19am 9.5 3.4 6.4 81 1.4 W 28 39 15 21 1018.2 1018.3 0.0
21/02:00am 9.0 5.0 5.0 76 1.8 WNW 15 20 8 11 1018.2 1018.3 0.0
21/01:30am 8.6 4.6 4.8 77 1.7 WNW 15 19 8 10 1017.8 1017.9 0.0
21/01:00am 8.3 4.2 4.3 76 1.7 NW 15 22 8 12 1017.6 1017.7 0.0
21/12:30am 8.7 4.3 4.7 76 1.8 WNW 17 24 9 13 1017.5 1017.6 0.0
21/12:00am 8.8 3.3 4.2 73 2.0 WNW 22 30 12 16 1017.3 1017.4 0.0
 
Date/Time
EST
Temp
°C
App
Temp
°C
Dew
Point
Rel
Hum
%
Delta-T
°C
Wind Press
QNH
hPa
Press
MSL
hPa
Rain
since 9 am
mm
Dir
 
Spd
km/h
Gust
km/h
Spd
kts
Gust
kts
20/11:30pm 8.5 3.3 3.8 72 2.0 NW 20 28 11 15 1017.0 1017.1 0.0
20/11:00pm 8.1 2.9 3.8 74 1.9 WNW 20 28 11 15 1016.9 1017.0 0.0
20/10:30pm 8.4 2.4 3.3 70 2.2 NW 24 30 13 16 1016.9 1017.0 0.0
20/10:00pm 8.2 1.7 2.9 69 2.2 NW 26 32 14 17 1016.7 1016.8 0.0
20/09:30pm 8.4 1.9 2.8 68 2.4 NW 26 33 14 18 1016.5 1016.6 0.0
20/09:00pm 8.4 2.4 3.3 70 2.2 NW 24 32 13 17 1016.4 1016.5 0.0
20/08:30pm 8.1 2.2 3.8 74 1.9 WNW 24 33 13 18 1016.4 1016.5 0.0
20/08:00pm 8.1 1.4 3.6 73 1.9 WNW 28 33 15 18 1016.0 1016.1 0.0
20/07:30pm 8.3 0.6 3.4 71 2.1 W 33 41 18 22 1015.7 1015.8 0.0
20/07:00pm 8.2 0.1 3.3 71 2.1 W 35 44 19 24 1015.3 1015.4 0.0
20/06:30pm 8.0 -0.1 3.3 72 2.0 W 35 54 19 29 1014.8 1014.9 0.0
20/06:00pm 8.0 -0.4 3.7 74 1.9 W 37 50 20 27 1014.3 1014.4 0.0
20/05:30pm 8.2 -1.6 3.5 72 2.0 WSW 44 54 24 29 1013.6 1013.7 0.0
20/05:00pm 7.9 -0.5 3.9 76 1.7 WSW 37 46 20 25 1013.3 1013.4 0.0
20/04:30pm 8.2 0.3 4.2 76 1.7 WSW 35 44 19 24 1013.2 1013.3 0.0
20/04:00pm 8.5 1.0 4.5 76 1.8 WSW 33 43 18 23 1013.1 1013.2 0.0
20/03:30pm 8.6 2.5 4.8 77 1.7 WSW 26 35 14 19 1012.9 1013.0 0.0
20/03:00pm 8.7 2.6 4.7 76 1.8 WSW 26 35 14 19 1012.5 1012.6 0.0
20/02:30pm 8.9 3.2 5.1 77 1.7 SW 24 35 13 19 1012.7 1012.8 0.0
20/02:00pm 8.7 2.3 5.1 78 1.6 SW 28 37 15 20 1012.6 1012.7 0.0
20/01:30pm 8.9 4.2 6.2 83 1.2 SW 20 30 11 16 1012.5 1012.6 0.0
20/01:00pm 8.5 3.5 6.3 86 1.0 SW 22 28 12 15 1012.4 1012.5 0.0
20/12:30pm 8.8 4.1 6.2 84 1.2 SW 20 30 11 16 1012.3 1012.3 0.0
20/12:00pm 9.3 5.8 7.3 87 0.9 SW 15 20 8 11 1012.3 1012.3 0.0
20/11:30am 8.9 5.7 6.7 86 1.0 SW 13 20 7 11 1012.3 1012.3 0.0
20/11:00am 9.1 5.9 6.7 85 1.1 SW 13 20 7 11 1012.3 1012.3 0.0
20/10:30am 8.9 4.3 6.5 85 1.1 SW 20 30 11 16 1012.2 1012.2 0.0
20/10:00am 9.0 4.8 5.7 80 1.5 SW 17 22 9 12 1011.9 1011.9 0.0
20/09:30am 9.0 5.6 5.7 80 1.5 SW 13 20 7 11 1011.7 1011.7 0.0
20/09:00am 8.8 5.3 5.5 80 1.5 SW 13 20 7 11 1011.4 1011.4 7.6
20/08:30am 8.8 5.4 5.7 81 1.4 SSW 13 22 7 12 1011.1 1011.1 7.6
20/08:00am 8.6 4.8 5.7 82 1.3 SSW 15 26 8 14 1010.8 1010.8 7.6
20/07:30am 8.6 4.9 6.2 85 1.1 SSW 15 35 8 19 1010.3 1010.3 7.6
20/07:00am 8.3 2.9 6.3 87 0.9 S 24 33 13 18 1009.9 1009.9 7.6
20/06:30am 8.7 4.3 6.5 86 1.0 S 19 28 10 15 1009.5 1009.5 7.6
20/06:00am 8.6 4.7 6.9 89 0.8 SSW 17 32 9 17 1009.1 1009.1 7.6
20/05:30am 8.5 3.6 7.1 91 0.7 S 22 41 12 22 1008.6 1008.6 7.4
20/05:00am 8.7 3.2 7.5 92 0.6 S 26 41 14 22 1008.2 1008.2 7.2
20/04:30am 8.9 4.5 7.5 91 0.7 S 20 33 11 18 1007.6 1007.6 6.8
20/04:00am 9.5 4.8 7.9 90 0.8 S 22 33 12 18 1007.3 1007.3 6.4
20/03:30am 9.7 4.8 8.3 91 0.7 S 24 37 13 20 1007.0 1007.0 6.4
20/03:00am 10.0 5.2 8.8 92 0.6 S 24 33 13 18 1006.6 1006.6 6.4
20/02:30am 10.1 5.7 8.9 92 0.6 S 22 32 12 17 1006.4 1006.4 6.4
20/02:00am 10.4 5.3 9.2 92 0.6 S 26 35 14 19 1006.2 1006.2 6.2
20/01:30am 10.8 6.2 9.6 92 0.6 S 24 32 13 17 1005.8 1005.8 5.8
20/01:00am 11.3 8.9 10.0 92 0.7 W 13 19 7 10 1005.4 1005.4 4.6
20/12:30am 11.0 9.2 9.6 91 0.7 W 9 11 5 6 1005.3 1005.3 4.6
20/12:00am 10.9 9.5 9.5 91 0.7 NW 7 11 4 6 1005.1 1005.1 4.6
 
Date/Time
EST
Temp
°C
App
Temp
°C
Dew
Point
Rel
Hum
%
Delta-T
°C
Wind Press
QNH
hPa
Press
MSL
hPa
Rain
since 9 am
mm
Dir
 
Spd
km/h
Gust
km/h
Spd
kts
Gust
kts
19/11:30pm 10.8 9.4 9.4 91 0.7 NNW 7 9 4 5 1005.1 1005.1 4.6
19/11:00pm 10.7 9.2 9.1 90 0.8 NNW 7 15 4 8 1005.2 1005.2 4.6
19/10:30pm 11.1 9.9 9.5 90 0.8 WNW 6 7 3 4 1005.2 1005.2 4.6
19/10:00pm 10.9 9.4 9.2 89 0.9 W 7 9 4 5 1005.0 1005.0 4.6
19/09:30pm 10.7 9.2 9.0 89 0.8 WNW 7 9 4 5 1004.9 1004.9 4.6
19/09:00pm 11.4 10.0 9.7 89 0.9 WSW 7 9 4 5 1004.8 1004.8 4.6
19/08:30pm 11.8 11.5 10.0 89 0.9 SW 2 7 1 4 1004.5 1004.5 4.6
19/08:00pm 11.6 10.5 9.9 89 0.9 SE 6 7 3 4 1004.2 1004.2 4.6

Other Formats:

Comma delimited format used in spreadsheet applications
http://www.bom.gov.au/fwo/IDT60801/IDT60801.95967.axf

JavaScript Object Notation format (JSON) in row-major order
http://www.bom.gov.au/fwo/IDT60801/IDT60801.95967.json